Time;durP1;ratioP1;P1;durP2;ratioP2;P2;SDS_P1;SDS_P2;PMS_P1;PMS_P2;Temp;Humidity;BMP_temperature;BMP_pressure;BME280_temperature;BME280_humidity;BME280_pressure;Samples;Min_cycle;Max_cycle;Signal;HPM_P1;HPM_P2
2021/03/17 00:01:22;;;;;;;13.65;12.30;;;29.70;90.80;;;;;;5054428;28;20646;-53
2021/03/17 00:03:52;;;;;;;15.05;12.90;;;29.70;90.80;;;;;;5064822;28;20222;-50
2021/03/17 00:06:22;;;;;;;14.20;12.90;;;29.70;90.90;;;;;;5065111;28;20314;-52
2021/03/17 00:08:53;;;;;;;15.48;13.65;;;29.70;90.90;;;;;;5052744;28;20220;-54
2021/03/17 00:11:25;;;;;;;15.35;14.00;;;29.70;90.90;;;;;;5060785;28;20201;-52
2021/03/17 00:14:03;;;;;;;14.93;13.43;;;29.80;91.10;;;;;;5064554;28;20197;-50
2021/03/17 00:16:34;;;;;;;15.77;14.25;;;29.80;91.10;;;;;;5063178;28;20209;-52
2021/03/17 00:19:05;;;;;;;16.23;14.60;;;29.80;91.10;;;;;;5064172;28;20689;-49
2021/03/17 00:21:36;;;;;;;18.63;14.57;;;29.80;91.20;;;;;;5056062;28;20202;-50
2021/03/17 00:24:08;;;;;;;16.23;14.60;;;29.90;91.20;;;;;;5050630;28;20266;-49
2021/03/17 00:26:38;;;;;;;17.25;15.43;;;29.90;91.30;;;;;;5050706;28;20204;-51
2021/03/17 00:29:10;;;;;;;15.68;14.10;;;29.90;91.30;;;;;;5063617;28;20206;-51
2021/03/17 00:31:40;;;;;;;15.40;13.85;;;30.00;91.40;;;;;;5065004;28;20197;-49
2021/03/17 00:34:11;;;;;;;15.50;13.60;;;29.90;91.30;;;;;;5065575;28;20722;-49
2021/03/17 00:36:41;;;;;;;15.05;13.48;;;30.00;91.40;;;;;;5064704;28;20236;-50
2021/03/17 00:39:12;;;;;;;14.30;12.80;;;30.00;91.30;;;;;;5064540;28;20193;-51
2021/03/17 00:41:43;;;;;;;15.15;13.52;;;30.10;91.40;;;;;;5064276;28;20239;-50
2021/03/17 00:44:26;;;;;;;14.27;12.80;;;30.10;91.30;;;;;;5054008;28;20810;-49
2021/03/17 00:46:57;;;;;;;16.33;14.63;;;30.20;91.30;;;;;;5050851;28;20855;-49
2021/03/17 00:49:27;;;;;;;16.02;13.80;;;30.30;91.20;;;;;;5050476;28;20205;-49
2021/03/17 00:51:58;;;;;;;15.45;13.95;;;30.30;91.20;;;;;;5056445;28;20656;-51
2021/03/17 00:54:29;;;;;;;16.90;14.55;;;30.40;91.10;;;;;;5059507;28;20613;-52
2021/03/17 00:57:03;;;;;;;15.73;14.23;;;30.40;91.10;;;;;;5058793;28;20239;-52
2021/03/17 00:59:34;;;;;;;15.20;13.70;;;30.50;91.10;;;;;;5062577;28;20315;-51
2021/03/17 01:02:06;;;;;;;14.95;13.50;;;30.50;91.40;;;;;;5062764;28;20260;-53
2021/03/17 01:04:37;;;;;;;15.27;13.88;;;30.50;91.00;;;;;;5062998;28;20213;-48
2021/03/17 01:07:17;;;;;;;16.38;14.68;;;30.60;90.90;;;;;;5059321;28;20197;-51
2021/03/17 01:09:48;;;;;;;16.52;14.93;;;30.70;90.70;;;;;;5061206;28;20189;-50
2021/03/17 01:12:22;;;;;;;16.02;14.35;;;30.70;90.70;;;;;;5054481;28;20244;-51
2021/03/17 01:14:54;;;;;;;15.35;13.85;;;30.80;90.80;;;;;;5056957;28;20206;-50
2021/03/17 01:17:28;;;;;;;15.07;13.55;;;30.80;90.70;;;;;;5063527;28;20193;-48
2021/03/17 01:19:58;;;;;;;16.35;13.75;;;30.90;90.70;;;;;;5060658;28;20202;-49
2021/03/17 01:22:29;;;;;;;16.90;14.93;;;30.90;90.70;;;;;;5062593;28;20608;-50
2021/03/17 01:25:01;;;;;;;17.60;15.80;;;30.90;90.60;;;;;;5058660;28;20205;-50
2021/03/17 01:27:32;;;;;;;17.77;15.88;;;31.00;90.60;;;;;;5059575;28;20204;-50
2021/03/17 01:30:07;;;;;;;16.38;14.77;;;31.10;90.50;;;;;;5060255;28;20665;-49
2021/03/17 01:32:38;;;;;;;15.88;14.40;;;31.10;90.30;;;;;;5061739;28;20255;-53
2021/03/17 01:35:19;;;;;;;16.63;14.98;;;31.20;90.20;;;;;;5061541;28;20623;-51
2021/03/17 01:37:49;;;;;;;17.35;15.68;;;31.20;90.10;;;;;;5058098;28;20189;-53
2021/03/17 01:40:21;;;;;;;16.15;14.50;;;31.30;89.60;;;;;;5061432;28;20215;-53
2021/03/17 01:42:51;;;;;;;17.58;15.88;;;31.40;89.40;;;;;;5063839;28;20209;-53
2021/03/17 01:45:23;;;;;;;17.23;15.65;;;31.40;89.30;;;;;;5061384;28;20634;-52
2021/03/17 01:47:53;;;;;;;15.25;13.77;;;31.40;88.80;;;;;;5058911;28;20378;-51
2021/03/17 01:50:25;;;;;;;16.15;14.70;;;31.50;88.80;;;;;;5063329;28;20260;-51
2021/03/17 01:52:56;;;;;;;17.00;15.50;;;31.60;88.50;;;;;;5064615;28;20198;-53
2021/03/17 01:55:27;;;;;;;16.13;14.52;;;31.60;87.60;;;;;;5057499;28;20557;-51
2021/03/17 01:57:57;;;;;;;16.60;14.90;;;31.70;87.30;;;;;;5061665;28;20243;-51
2021/03/17 02:00:29;;;;;;;15.02;13.65;;;31.70;86.80;;;;;;5067999;28;20265;-50
2021/03/17 02:02:59;;;;;;;16.52;14.68;;;31.80;86.50;;;;;;5067091;28;20257;-48
2021/03/17 02:05:32;;;;;;;17.13;15.27;;;31.80;86.10;;;;;;5054851;28;20198;-48
2021/03/17 02:08:05;;;;;;;16.38;14.70;;;31.90;85.50;;;;;;5061796;28;20229;-52
2021/03/17 02:10:35;;;;;;;15.90;14.43;;;31.90;85.20;;;;;;5057568;28;20978;-48
2021/03/17 02:13:21;;;;;;;15.90;14.45;;;31.90;85.00;;;;;;5067263;28;20237;-49
2021/03/17 02:16:00;;;;;;;17.30;15.05;;;32.00;84.90;;;;;;5023491;28;20205;-48
2021/03/17 02:18:48;;;;;;;15.13;13.63;;;32.10;85.30;;;;;;5025169;28;20210;-53
2021/03/17 02:21:38;;;;;;;16.85;15.25;;;32.10;84.20;;;;;;5011782;28;20202;-50
2021/03/17 02:24:12;;;;;;;16.55;14.95;;;32.20;84.00;;;;;;4984847;28;20283;-57
2021/03/17 02:27:04;;;;;;;15.65;14.25;;;32.30;84.10;;;;;;4976694;28;20699;-48
2021/03/17 02:29:56;;;;;;;18.95;17.02;;;32.40;82.60;;;;;;4929211;29;20214;-53
2021/03/17 02:32:45;;;;;;;15.88;14.40;;;32.40;82.20;;;;;;4929551;29;20221;-49
2021/03/17 02:35:18;;;;;;;16.63;15.10;;;32.40;82.90;;;;;;4929624;29;20218;-49
2021/03/17 02:37:49;;;;;;;17.08;15.48;;;32.50;82.70;;;;;;4929840;29;20250;-50
2021/03/17 02:40:21;;;;;;;15.52;14.10;;;32.50;82.40;;;;;;4936736;28;20644;-50
2021/03/17 02:43:00;;;;;;;16.38;14.70;;;32.60;82.40;;;;;;4929556;29;20210;-50
2021/03/17 02:45:50;;;;;;;17.92;16.23;;;32.60;82.00;;;;;;4891282;29;20219;-51
2021/03/17 02:48:23;;;;;;;17.80;16.13;;;32.80;81.10;;;;;;4904521;29;20751;-54
2021/03/17 02:50:56;;;;;;;18.02;15.50;;;32.80;81.30;;;;;;4929690;29;20265;-49
2021/03/17 02:53:27;;;;;;;16.58;15.07;;;32.80;81.50;;;;;;4940041;28;20216;-51
2021/03/17 02:55:59;;;;;;;17.83;16.05;;;33.00;81.00;;;;;;4967576;28;20208;-52
2021/03/17 02:58:30;;;;;;;17.38;15.73;;;33.00;80.60;;;;;;4968108;28;20252;-50
2021/03/17 03:01:00;;;;;;;16.88;15.27;;;33.00;79.80;;;;;;4967589;28;20240;-53
2021/03/17 03:03:33;;;;;;;16.17;14.77;;;33.10;79.80;;;;;;4968059;28;20236;-51
2021/03/17 03:06:05;;;;;;;17.95;16.42;;;33.20;79.80;;;;;;5001369;28;20269;-52
2021/03/17 03:08:36;;;;;;;19.30;17.40;;;33.20;79.00;;;;;;4989145;28;20463;-52
2021/03/17 03:11:07;;;;;;;19.27;17.45;;;33.30;78.20;;;;;;4991858;28;20676;-49
2021/03/17 03:13:38;;;;;;;17.55;15.75;;;33.40;77.50;;;;;;4997319;28;20203;-55
2021/03/17 03:16:13;;;;;;;16.83;15.25;;;33.40;77.70;;;;;;4971219;28;21130;-51
2021/03/17 03:18:45;;;;;;;17.00;15.45;;;33.50;77.80;;;;;;5025127;28;20211;-50
2021/03/17 03:21:18;;;;;;;17.50;15.95;;;33.60;77.60;;;;;;5026233;28;20211;-50
2021/03/17 03:23:49;;;;;;;18.33;16.65;;;33.60;77.00;;;;;;5026325;28;20211;-50
2021/03/17 03:26:19;;;;;;;18.08;16.25;;;33.70;76.60;;;;;;5026703;28;20286;-50
2021/03/17 03:28:51;;;;;;;16.80;15.25;;;33.80;75.90;;;;;;5025746;28;21723;-49
2021/03/17 03:31:21;;;;;;;20.05;18.15;;;33.80;76.00;;;;;;5016196;28;20207;-52
2021/03/17 03:33:52;;;;;;;18.27;16.42;;;33.90;73.90;;;;;;5024097;28;20230;-48
2021/03/17 03:36:26;;;;;;;18.35;16.33;;;33.90;74.80;;;;;;5021997;28;20203;-53
2021/03/17 03:38:58;;;;;;;19.05;17.33;;;34.00;75.20;;;;;;5025957;28;20194;-49
2021/03/17 03:41:29;;;;;;;19.10;17.20;;;34.00;74.00;;;;;;4978098;28;20230;-49
2021/03/17 03:44:00;;;;;;;19.80;17.98;;;34.10;74.00;;;;;;4985665;28;20224;-49
2021/03/17 03:46:35;;;;;;;18.05;16.25;;;34.20;73.20;;;;;;4999314;28;20206;-50
2021/03/17 03:49:06;;;;;;;20.92;18.67;;;34.20;73.60;;;;;;5035450;28;20241;-51
2021/03/17 03:51:39;;;;;;;18.38;16.58;;;34.20;72.00;;;;;;5033202;28;20292;-51
2021/03/17 03:54:14;;;;;;;17.67;16.08;;;34.30;71.70;;;;;;5028655;28;20230;-49
2021/03/17 03:56:48;;;;;;;22.00;19.90;;;34.30;72.20;;;;;;4988296;28;20302;-49
2021/03/17 03:59:22;;;;;;;18.23;16.42;;;34.40;70.10;;;;;;4988346;28;20206;-49
2021/03/17 04:01:55;;;;;;;21.13;19.13;;;34.40;70.10;;;;;;4999028;28;20300;-49
2021/03/17 04:04:28;;;;;;;20.38;18.58;;;34.40;69.20;;;;;;5002927;28;20215;-49
2021/03/17 04:07:02;;;;;;;17.77;16.17;;;34.40;69.70;;;;;;5003094;28;20367;-50
2021/03/17 04:09:33;;;;;;;17.88;16.20;;;34.50;69.80;;;;;;5002690;28;20200;-49
2021/03/17 04:12:05;;;;;;;18.00;16.30;;;34.60;70.40;;;;;;4995094;28;20203;-49
2021/03/17 04:14:35;;;;;;;18.60;16.90;;;34.60;69.80;;;;;;5007923;28;20620;-50
2021/03/17 04:17:08;;;;;;;22.23;20.15;;;34.70;70.60;;;;;;5015570;28;20383;-49
2021/03/17 04:19:39;;;;;;;19.52;17.75;;;34.70;66.40;;;;;;5019473;28;20651;-52
2021/03/17 04:22:11;;;;;;;19.00;17.27;;;34.70;67.60;;;;;;5008733;28;20253;-51
2021/03/17 04:24:42;;;;;;;23.75;21.38;;;34.80;68.00;;;;;;5013256;28;20797;-49
2021/03/17 04:27:12;;;;;;;20.63;18.73;;;34.90;65.90;;;;;;5029382;28;20995;-52
2021/03/17 04:29:43;;;;;;;23.30;21.13;;;34.80;65.70;;;;;;5054768;28;20284;-52
2021/03/17 04:32:14;;;;;;;21.73;19.52;;;34.80;65.00;;;;;;5021008;28;20217;-52
2021/03/17 04:34:45;;;;;;;20.10;18.30;;;34.80;65.20;;;;;;5009541;28;20265;-49
2021/03/17 04:37:17;;;;;;;20.00;18.30;;;34.90;65.30;;;;;;5007309;28;20199;-49
2021/03/17 04:39:48;;;;;;;23.95;21.77;;;34.90;65.30;;;;;;5009797;28;20209;-51
2021/03/17 04:42:19;;;;;;;23.13;20.92;;;34.90;62.00;;;;;;5018293;28;20204;-52
2021/03/17 04:44:50;;;;;;;20.20;18.40;;;34.90;62.70;;;;;;5008627;28;20241;-53
2021/03/17 04:47:22;;;;;;;21.95;20.05;;;34.90;63.80;;;;;;5010256;28;20211;-50
2021/03/17 04:49:52;;;;;;;20.67;18.67;;;35.00;63.80;;;;;;5011355;28;20214;-50
2021/03/17 04:52:24;;;;;;;20.00;18.20;;;35.00;63.90;;;;;;5020080;28;20213;-51
2021/03/17 04:54:55;;;;;;;23.02;20.92;;;35.00;63.90;;;;;;5014377;28;20199;-53
2021/03/17 04:57:27;;;;;;;24.05;21.63;;;35.00;59.60;;;;;;5048227;28;20206;-51
2021/03/17 04:59:58;;;;;;;18.77;17.02;;;35.00;62.00;;;;;;5056390;28;20267;-50
2021/03/17 05:02:29;;;;;;;19.63;17.70;;;35.10;63.00;;;;;;5061063;28;20217;-51
2021/03/17 05:05:00;;;;;;;20.73;18.88;;;35.10;63.80;;;;;;5051588;28;20214;-49
2021/03/17 05:07:32;;;;;;;21.50;19.50;;;35.10;63.70;;;;;;5061610;28;20235;-52
2021/03/17 05:10:03;;;;;;;21.42;19.17;;;35.20;63.90;;;;;;5056547;28;20202;-50
2021/03/17 05:12:33;;;;;;;22.08;19.85;;;35.20;63.60;;;;;;5050543;28;20202;-52
2021/03/17 05:15:04;;;;;;;18.55;16.85;;;35.20;63.20;;;;;;5049746;28;20196;-52
2021/03/17 05:17:45;;;;;;;19.83;18.05;;;35.30;64.60;;;;;;5058363;28;20194;-51
2021/03/17 05:20:16;;;;;;;21.40;19.17;;;35.30;63.80;;;;;;5050389;28;20252;-52
2021/03/17 05:22:48;;;;;;;18.80;17.13;;;35.30;63.80;;;;;;5050092;28;20281;-50
2021/03/17 05:25:20;;;;;;;21.88;19.88;;;35.40;63.70;;;;;;5053053;28;20210;-50
2021/03/17 05:27:52;;;;;;;19.85;18.05;;;35.50;62.30;;;;;;5063730;28;20650;-49
2021/03/17 05:30:24;;;;;;;19.40;17.70;;;35.50;63.50;;;;;;5064282;28;20588;-50
2021/03/17 05:32:55;;;;;;;20.33;18.40;;;35.60;64.20;;;;;;5053474;28;20206;-50
2021/03/17 05:35:26;;;;;;;19.55;17.67;;;35.60;63.70;;;;;;5059846;28;20189;-49
2021/03/17 05:37:59;;;;;;;20.02;18.05;;;35.70;64.10;;;;;;5066324;28;20205;-51
2021/03/17 05:40:31;;;;;;;23.75;21.55;;;35.70;63.90;;;;;;5064575;28;20194;-51
2021/03/17 05:43:02;;;;;;;19.55;17.75;;;35.70;61.20;;;;;;5066336;28;20201;-52
2021/03/17 05:45:33;;;;;;;19.83;17.70;;;35.80;62.20;;;;;;5064285;28;20633;-53
2021/03/17 05:48:11;;;;;;;18.73;16.90;;;35.80;63.00;;;;;;5067645;28;20790;-50
2021/03/17 05:50:42;;;;;;;18.02;16.23;;;35.90;63.40;;;;;;5068884;28;20232;-52
2021/03/17 05:53:15;;;;;;;17.55;15.90;;;35.80;63.70;;;;;;5055867;28;20205;-50
2021/03/17 05:55:45;;;;;;;20.50;18.55;;;36.00;63.90;;;;;;5058497;28;20784;-53
2021/03/17 05:58:16;;;;;;;20.77;18.65;;;36.00;63.90;;;;;;5061556;28;20202;-52
2021/03/17 06:00:46;;;;;;;18.95;17.25;;;36.00;62.90;;;;;;5063069;28;20282;-49
2021/03/17 06:03:17;;;;;;;18.30;16.67;;;36.10;63.40;;;;;;5058300;28;20331;-51
2021/03/17 06:05:48;;;;;;;22.17;18.73;;;36.00;63.40;;;;;;5068464;28;20197;-50
2021/03/17 06:08:23;;;;;;;18.30;16.63;;;36.10;63.60;;;;;;5063928;28;20198;-53
2021/03/17 06:10:54;;;;;;;17.73;15.85;;;36.10;62.80;;;;;;5068433;28;20570;-49
2021/03/17 06:13:24;;;;;;;19.48;17.58;;;36.10;63.50;;;;;;5067703;28;20403;-52
2021/03/17 06:15:58;;;;;;;19.40;17.58;;;36.10;63.00;;;;;;5065273;28;20198;-50
2021/03/17 06:18:35;;;;;;;19.98;18.27;;;36.10;62.80;;;;;;5063040;28;20208;-52
2021/03/17 06:21:08;;;;;;;19.63;17.80;;;36.10;62.90;;;;;;5058700;28;20202;-53
2021/03/17 06:23:39;;;;;;;18.85;16.73;;;36.10;63.30;;;;;;5066946;28;20214;-50
2021/03/17 06:26:09;;;;;;;17.00;15.43;;;36.10;63.60;;;;;;5065865;28;20203;-50
2021/03/17 06:28:41;;;;;;;18.08;16.45;;;36.10;64.10;;;;;;5068483;28;20756;-50
2021/03/17 06:31:12;;;;;;;19.48;17.58;;;36.20;63.20;;;;;;5054415;28;20364;-51
2021/03/17 06:33:43;;;;;;;16.98;15.45;;;36.20;63.50;;;;;;5062007;28;20198;-50
2021/03/17 06:36:15;;;;;;;19.52;17.60;;;36.20;63.30;;;;;;5056484;28;20233;-51
2021/03/17 06:38:47;;;;;;;19.55;17.65;;;36.20;63.00;;;;;;5053414;28;20248;-51
2021/03/17 06:41:18;;;;;;;18.98;17.15;;;36.30;63.00;;;;;;5063402;28;20685;-51
2021/03/17 06:43:50;;;;;;;19.30;17.40;;;36.20;63.10;;;;;;5071827;28;20213;-50
2021/03/17 06:46:21;;;;;;;16.63;15.18;;;36.20;62.60;;;;;;5073212;28;20182;-49
2021/03/17 06:49:00;;;;;;;17.05;15.35;;;36.20;62.60;;;;;;5073567;28;20292;-50
2021/03/17 06:51:31;;;;;;;17.27;15.65;;;36.20;62.60;;;;;;5068884;28;20305;-51
2021/03/17 06:54:03;;;;;;;18.13;16.60;;;36.20;62.90;;;;;;5055738;28;20210;-49
2021/03/17 06:56:34;;;;;;;19.60;17.75;;;36.30;62.30;;;;;;5065449;28;20225;-49
2021/03/17 06:59:05;;;;;;;17.60;16.00;;;36.30;62.00;;;;;;5055616;28;20205;-50
2021/03/17 07:01:37;;;;;;;18.17;16.48;;;36.30;62.50;;;;;;5050618;28;20214;-50
2021/03/17 07:04:08;;;;;;;18.65;16.85;;;36.50;62.30;;;;;;5065534;28;20973;-50
2021/03/17 07:06:40;;;;;;;17.25;15.60;;;36.50;62.50;;;;;;5066384;28;20205;-51
2021/03/17 07:09:19;;;;;;;17.95;16.38;;;36.60;62.40;;;;;;5051632;28;20198;-51
2021/03/17 07:11:50;;;;;;;21.55;19.67;;;36.70;62.00;;;;;;5065268;28;20361;-48
2021/03/17 07:14:25;;;;;;;19.20;17.42;;;36.70;60.90;;;;;;5054694;28;20229;-53
2021/03/17 07:16:57;;;;;;;16.80;15.32;;;36.80;61.10;;;;;;5050252;28;20623;-50
2021/03/17 07:19:36;;;;;;;17.90;16.30;;;36.90;61.50;;;;;;5058408;28;20576;-51
2021/03/17 07:22:07;;;;;;;17.20;15.50;;;36.90;61.60;;;;;;5065556;28;20259;-49
2021/03/17 07:24:39;;;;;;;18.40;16.50;;;37.00;61.00;;;;;;5057703;28;20207;-49
2021/03/17 07:27:17;;;;;;;20.35;18.38;;;37.00;60.60;;;;;;5050467;28;20287;-50
2021/03/17 07:30:09;;;;;;;19.42;17.67;;;37.10;59.80;;;;;;5049991;28;20244;-51
2021/03/17 07:33:10;;;;;;;19.38;17.58;;;37.20;59.60;;;;;;5065789;28;20208;-49
2021/03/17 07:35:42;;;;;;;18.10;16.50;;;37.20;59.70;;;;;;5058535;28;20996;-50
2021/03/17 07:38:12;;;;;;;18.20;16.67;;;37.20;59.90;;;;;;5065761;28;20582;-50
2021/03/17 07:40:47;;;;;;;18.67;16.88;;;37.30;60.00;;;;;;5063777;28;20202;-49
2021/03/17 07:43:18;;;;;;;18.20;16.60;;;37.30;59.70;;;;;;5061085;28;20206;-51
2021/03/17 07:45:48;;;;;;;19.30;17.33;;;37.30;59.40;;;;;;5065064;28;20215;-50
2021/03/17 07:48:19;;;;;;;18.17;16.38;;;37.40;59.60;;;;;;5065156;28;20670;-49
2021/03/17 07:50:50;;;;;;;20.38;18.38;;;37.40;59.60;;;;;;5013754;28;20271;-49
2021/03/17 07:53:23;;;;;;;18.48;16.67;;;37.40;59.30;;;;;;5008698;28;20207;-52
2021/03/17 07:55:56;;;;;;;18.10;16.27;;;37.40;59.80;;;;;;5007064;28;20195;-50
2021/03/17 07:58:27;;;;;;;17.35;15.77;;;37.50;59.60;;;;;;5013323;28;20203;-49
2021/03/17 08:00:58;;;;;;;17.70;16.00;;;37.50;59.80;;;;;;4975055;28;20239;-51
2021/03/17 08:03:31;;;;;;;21.30;19.27;;;37.50;60.00;;;;;;4946405;29;20233;-49
2021/03/17 08:06:02;;;;;;;20.10;18.23;;;37.60;60.20;;;;;;4946746;29;20288;-52
2021/03/17 08:08:32;;;;;;;17.98;16.27;;;37.50;59.40;;;;;;4947027;29;20272;-50
2021/03/17 08:11:04;;;;;;;19.38;17.58;;;37.60;59.70;;;;;;4944823;29;20228;-49
2021/03/17 08:13:37;;;;;;;18.83;17.02;;;37.50;59.50;;;;;;4946154;29;20567;-50
2021/03/17 08:16:08;;;;;;;17.80;16.15;;;37.50;59.50;;;;;;4977630;28;20936;-50
2021/03/17 08:18:50;;;;;;;16.42;14.88;;;37.50;59.80;;;;;;4946301;29;20213;-49
2021/03/17 08:21:49;;;;;;;17.52;16.02;;;37.50;60.10;;;;;;4945626;29;20209;-49
2021/03/17 08:24:54;;;;;;;19.10;17.10;;;37.50;60.00;;;;;;4942511;29;20229;-49
2021/03/17 08:27:27;;;;;;;17.58;15.88;;;37.50;59.10;;;;;;4945209;29;20235;-49
2021/03/17 08:30:14;;;;;;;18.95;17.05;;;37.50;59.10;;;;;;4946415;29;20749;-53
2021/03/17 08:33:01;;;;;;;19.95;18.10;;;37.60;58.50;;;;;;4974771;28;20644;-49
2021/03/17 08:36:03;;;;;;;23.13;20.75;;;37.50;58.70;;;;;;5039765;28;20276;-49
2021/03/17 08:38:50;;;;;;;19.48;17.73;;;37.50;57.70;;;;;;5034598;28;20217;-52
2021/03/17 08:41:57;;;;;;;19.73;17.80;;;37.40;58.10;;;;;;5044072;28;20209;-49
2021/03/17 08:44:28;;;;;;;21.35;19.27;;;37.30;58.50;;;;;;4984673;28;20315;-50
2021/03/17 08:46:59;;;;;;;19.90;17.83;;;37.20;58.80;;;;;;4981813;28;20989;-51
2021/03/17 08:49:33;;;;;;;20.15;18.30;;;37.20;58.80;;;;;;4999874;28;20607;-52
2021/03/17 08:52:08;;;;;;;20.98;19.17;;;37.10;58.70;;;;;;5020752;28;20713;-54
2021/03/17 08:54:57;;;;;;;22.10;20.05;;;37.00;58.60;;;;;;5022083;28;20202;-51
2021/03/17 08:58:04;;;;;;;20.88;18.88;;;37.00;58.70;;;;;;5021202;28;20224;-50
2021/03/17 09:01:04;;;;;;;20.25;18.33;;;36.90;58.90;;;;;;5018266;28;20326;-52
2021/03/17 09:03:48;;;;;;;20.95;19.00;;;36.70;59.10;;;;;;4943743;29;20296;-52
2021/03/17 09:06:24;;;;;;;18.95;17.25;;;36.70;59.20;;;;;;5013748;28;20211;-50
2021/03/17 09:09:01;;;;;;;21.00;18.90;;;36.60;59.60;;;;;;5044658;28;20725;-49
2021/03/17 09:11:58;;;;;;;19.98;18.10;;;36.60;59.40;;;;;;5057014;28;20305;-52
2021/03/17 09:14:37;;;;;;;20.42;18.67;;;36.60;60.00;;;;;;5049522;28;20558;-49
2021/03/17 09:17:34;;;;;;;20.13;18.23;;;36.50;59.30;;;;;;5061419;28;20197;-51
2021/03/17 09:20:32;;;;;;;20.20;18.17;;;36.40;59.70;;;;;;5062076;28;20247;-50
2021/03/17 09:23:10;;;;;;;18.23;16.52;;;36.40;59.90;;;;;;5057646;28;20202;-53
2021/03/17 09:25:45;;;;;;;17.42;15.75;;;36.40;60.20;;;;;;5048454;28;20218;-51
2021/03/17 09:28:20;;;;;;;19.50;17.60;;;36.50;60.30;;;;;;5063122;28;20665;-53
2021/03/17 09:30:53;;;;;;;21.80;19.60;;;36.50;60.00;;;;;;5063309;28;20243;-54
2021/03/17 09:33:25;;;;;;;20.50;18.52;;;36.50;59.50;;;;;;5060806;28;20258;-50
2021/03/17 09:35:57;;;;;;;21.20;19.10;;;36.50;59.30;;;;;;5063574;28;20268;-50
2021/03/17 09:38:29;;;;;;;18.50;16.63;;;36.50;59.30;;;;;;5058083;28;20198;-51
2021/03/17 09:41:02;;;;;;;19.35;17.48;;;36.50;59.50;;;;;;5048560;28;20190;-50
2021/03/17 09:43:41;;;;;;;19.27;17.48;;;36.50;59.50;;;;;;5061082;28;20309;-52
2021/03/17 09:46:31;;;;;;;18.48;16.77;;;36.50;59.40;;;;;;5063428;28;20205;-50
2021/03/17 09:49:04;;;;;;;18.38;16.58;;;36.50;59.70;;;;;;5050872;28;20236;-51
2021/03/17 09:51:36;;;;;;;18.73;17.02;;;36.60;60.40;;;;;;5062647;28;20312;-49
2021/03/17 09:54:07;;;;;;;18.35;16.48;;;36.60;59.60;;;;;;5064389;28;20190;-51
2021/03/17 09:56:42;;;;;;;19.17;17.45;;;36.60;59.70;;;;;;5052935;28;20252;-52
2021/03/17 09:59:22;;;;;;;19.92;18.13;;;36.60;59.50;;;;;;5048721;28;20201;-51
2021/03/17 10:01:58;;;;;;;18.70;16.95;;;36.60;58.90;;;;;;5064133;28;20244;-52
2021/03/17 10:04:31;;;;;;;17.58;15.90;;;36.60;59.00;;;;;;5057829;28;20210;-51
2021/03/17 10:07:02;;;;;;;19.77;17.75;;;36.60;59.10;;;;;;5049238;28;20213;-48
2021/03/17 10:09:32;;;;;;;18.10;16.40;;;36.50;59.00;;;;;;5051283;28;20252;-52
2021/03/17 10:12:05;;;;;;;17.52;15.90;;;36.50;59.30;;;;;;5063975;28;20193;-50
2021/03/17 10:14:36;;;;;;;18.30;16.70;;;36.50;59.40;;;;;;5064297;28;20285;-49
2021/03/17 10:17:08;;;;;;;17.50;16.00;;;36.50;59.30;;;;;;5060336;28;20229;-50
2021/03/17 10:19:39;;;;;;;18.45;16.73;;;36.50;59.50;;;;;;5067308;28;20217;-49
2021/03/17 10:22:09;;;;;;;17.90;16.25;;;36.50;59.50;;;;;;5052719;28;20193;-50
2021/03/17 10:24:43;;;;;;;19.38;17.45;;;36.50;60.10;;;;;;5054930;28;20599;-49
2021/03/17 10:27:15;;;;;;;19.95;18.15;;;36.50;59.80;;;;;;5064968;28;20258;-49
2021/03/17 10:29:46;;;;;;;19.55;17.75;;;36.40;59.80;;;;;;5066613;28;20256;-49
2021/03/17 10:32:22;;;;;;;20.65;18.65;;;36.50;59.80;;;;;;5066323;28;20681;-49
2021/03/17 10:34:53;;;;;;;20.00;17.95;;;36.60;59.80;;;;;;5068198;28;20197;-50
2021/03/17 10:37:24;;;;;;;19.38;17.48;;;36.70;59.70;;;;;;5059288;28;20204;-50
2021/03/17 10:39:55;;;;;;;20.85;18.80;;;36.70;59.40;;;;;;5066619;28;20642;-49
2021/03/17 10:42:27;;;;;;;20.30;18.27;;;36.70;59.30;;;;;;5061976;28;20229;-51
2021/03/17 10:45:06;;;;;;;17.77;16.10;;;36.70;59.30;;;;;;5062826;28;20232;-52
2021/03/17 10:47:39;;;;;;;18.35;16.65;;;36.60;59.40;;;;;;5053271;28;20716;-52
2021/03/17 10:50:11;;;;;;;17.23;15.27;;;36.60;59.70;;;;;;5051996;28;20313;-51
2021/03/17 10:52:42;;;;;;;18.42;16.58;;;36.50;60.00;;;;;;5051887;28;20234;-52
2021/03/17 10:55:20;;;;;;;20.00;18.08;;;36.50;60.00;;;;;;5060412;28;20277;-51
2021/03/17 10:57:52;;;;;;;18.08;16.30;;;36.40;60.40;;;;;;5054424;28;20267;-53
2021/03/17 11:00:27;;;;;;;20.60;18.42;;;36.40;60.50;;;;;;5058880;28;20664;-51
2021/03/17 11:02:59;;;;;;;19.40;17.50;;;36.30;60.70;;;;;;5053702;28;20200;-49
2021/03/17 11:05:32;;;;;;;18.30;16.58;;;36.20;61.00;;;;;;5067279;28;20217;-52
2021/03/17 11:08:12;;;;;;;19.50;16.75;;;36.10;61.00;;;;;;5066720;28;20193;-50
2021/03/17 11:10:59;;;;;;;18.80;17.00;;;36.00;61.50;;;;;;5062036;28;20196;-49
2021/03/17 11:13:43;;;;;;;19.33;17.33;;;36.00;61.60;;;;;;5014350;28;20200;-50
2021/03/17 11:16:26;;;;;;;19.40;17.40;;;35.90;61.80;;;;;;5008855;28;20203;-51
2021/03/17 11:18:58;;;;;;;17.75;15.48;;;35.80;61.60;;;;;;5007639;28;20203;-49
2021/03/17 11:21:32;;;;;;;17.95;16.15;;;35.70;61.80;;;;;;5008056;28;20198;-51
2021/03/17 11:24:03;;;;;;;17.85;16.15;;;35.50;62.00;;;;;;5008203;28;20214;-50
2021/03/17 11:26:35;;;;;;;18.10;16.17;;;35.40;62.30;;;;;;5007871;28;20269;-49
2021/03/17 11:29:13;;;;;;;17.30;15.52;;;35.30;62.80;;;;;;5007307;28;20285;-51
2021/03/17 11:31:44;;;;;;;18.42;16.60;;;35.20;63.40;;;;;;5007774;28;20887;-49
2021/03/17 11:34:17;;;;;;;16.38;14.88;;;35.10;63.70;;;;;;5008087;28;20298;-53
2021/03/17 11:36:48;;;;;;;17.48;15.77;;;34.90;64.10;;;;;;5008837;28;20209;-51
2021/03/17 11:39:19;;;;;;;16.75;15.13;;;34.80;64.40;;;;;;5008529;28;20211;-50
2021/03/17 11:41:50;;;;;;;17.33;15.75;;;34.80;65.10;;;;;;5021326;28;20199;-50
2021/03/17 11:44:22;;;;;;;17.80;15.95;;;34.70;65.20;;;;;;5042095;28;20216;-51
2021/03/17 11:46:52;;;;;;;17.05;15.45;;;34.60;65.50;;;;;;5065487;28;20194;-50
2021/03/17 11:49:24;;;;;;;20.90;18.80;;;34.50;65.80;;;;;;5063093;28;20198;-49
2021/03/17 11:51:54;;;;;;;18.02;16.15;;;34.50;66.10;;;;;;5065949;28;20230;-50
2021/03/17 11:54:26;;;;;;;17.65;16.10;;;34.40;66.40;;;;;;5056996;28;20264;-50
2021/03/17 11:56:57;;;;;;;17.48;15.77;;;34.40;66.80;;;;;;5050763;28;20682;-50
2021/03/17 11:59:28;;;;;;;15.85;14.48;;;34.30;67.90;;;;;;5066263;28;20243;-49
2021/03/17 12:01:58;;;;;;;16.02;14.38;;;34.20;67.30;;;;;;5054101;28;20269;-51
2021/03/17 12:04:30;;;;;;;19.27;15.80;;;34.20;67.60;;;;;;5053634;28;20316;-52
2021/03/17 12:07:00;;;;;;;17.90;16.10;;;34.10;67.90;;;;;;5055431;28;20564;-49
2021/03/17 12:09:31;;;;;;;18.15;16.25;;;34.10;68.20;;;;;;5051636;28;20212;-53
2021/03/17 12:12:01;;;;;;;19.45;17.55;;;34.00;68.40;;;;;;5050578;28;20194;-52
2021/03/17 12:14:32;;;;;;;21.27;19.08;;;34.00;68.80;;;;;;5057238;28;20196;-54
2021/03/17 12:17:03;;;;;;;23.52;21.25;;;34.00;69.10;;;;;;5060216;28;20691;-53
2021/03/17 12:19:34;;;;;;;21.90;19.75;;;33.90;69.30;;;;;;5065096;28;20607;-50
2021/03/17 12:22:05;;;;;;;22.20;19.05;;;33.90;69.50;;;;;;5054939;28;20633;-52
2021/03/17 12:24:35;;;;;;;19.50;17.50;;;33.90;69.70;;;;;;5050835;28;20615;-52
2021/03/17 12:27:06;;;;;;;18.20;16.40;;;33.80;69.80;;;;;;5065299;28;20202;-52
2021/03/17 12:29:37;;;;;;;20.08;18.02;;;33.80;70.00;;;;;;5065613;28;20209;-52
2021/03/17 12:32:07;;;;;;;19.48;17.65;;;33.70;70.30;;;;;;5062910;28;20630;-49
2021/03/17 12:34:39;;;;;;;19.08;17.38;;;33.70;70.60;;;;;;5050048;28;20202;-52
2021/03/17 12:37:10;;;;;;;18.23;16.60;;;33.60;70.90;;;;;;5063341;28;20251;-51
2021/03/17 12:39:43;;;;;;;18.70;16.90;;;33.50;71.00;;;;;;5065226;28;20193;-49
2021/03/17 12:42:13;;;;;;;17.73;15.98;;;33.50;71.20;;;;;;5064316;28;20205;-50
2021/03/17 12:44:44;;;;;;;18.08;16.38;;;33.50;71.40;;;;;;5062311;28;20205;-49
2021/03/17 12:47:15;;;;;;;17.90;16.20;;;33.40;71.50;;;;;;5055986;28;20207;-50
2021/03/17 12:49:47;;;;;;;18.38;16.58;;;33.40;71.90;;;;;;5056462;28;20201;-49
2021/03/17 12:52:17;;;;;;;18.88;16.50;;;33.40;72.00;;;;;;5050358;28;20190;-49
2021/03/17 12:54:48;;;;;;;18.10;16.30;;;33.30;72.00;;;;;;5064439;28;20193;-49
2021/03/17 12:57:18;;;;;;;18.65;16.65;;;33.30;72.30;;;;;;5064033;28;20194;-49
2021/03/17 12:59:49;;;;;;;17.75;16.05;;;33.30;72.30;;;;;;5062772;28;20330;-50
2021/03/17 13:02:20;;;;;;;19.00;17.15;;;33.30;72.40;;;;;;5065500;28;20205;-49